Time;durP1;ratioP1;P1;durP2;ratioP2;P2;SDS_P1;SDS_P2;PMS_P1;PMS_P2;Temp;Humidity;BMP_temperature;BMP_pressure;BME280_temperature;BME280_humidity;BME280_pressure;Samples;Min_cycle;Max_cycle;Signal;HPM_P1;HPM_P2
2023/09/09 00:00:10;;;;;;;6.30;3.92;;;;;;;26.89;41.20;100638.47;5115133;28;20051;-69
2023/09/09 00:02:38;;;;;;;5.72;3.70;;;;;;;26.87;41.62;100648.78;5114799;28;20043;-69
2023/09/09 00:05:11;;;;;;;6.10;3.85;;;;;;;26.85;41.25;100643.50;5115014;28;20048;-69
2023/09/09 00:07:42;;;;;;;5.57;4.00;;;;;;;26.84;41.67;100640.94;5114855;28;20138;-69
2023/09/09 00:10:11;;;;;;;7.07;3.72;;;;;;;26.84;41.21;100646.44;5114603;28;20060;-69
2023/09/09 00:12:40;;;;;;;5.70;3.88;;;;;;;26.81;41.26;100643.00;5114374;28;20051;-70
2023/09/09 00:15:09;;;;;;;6.22;3.95;;;;;;;26.80;41.41;100645.94;5115023;28;20133;-70
2023/09/09 00:17:40;;;;;;;7.32;3.78;;;;;;;26.78;41.20;100639.81;5114676;28;20075;-69
2023/09/09 00:20:11;;;;;;;5.65;3.75;;;;;;;26.76;41.02;100640.00;5114211;28;20416;-69
2023/09/09 00:22:43;;;;;;;5.22;3.70;;;;;;;26.74;41.49;100633.88;5114418;28;20044;-69
2023/09/09 00:25:11;;;;;;;5.63;3.90;;;;;;;26.73;41.62;100643.13;5114638;28;20126;-69
2023/09/09 00:27:39;;;;;;;6.40;3.85;;;;;;;26.73;41.57;100640.38;5114269;28;20477;-70
2023/09/09 00:30:09;;;;;;;4.93;3.65;;;;;;;26.72;41.24;100638.66;5114472;28;20047;-69
2023/09/09 00:32:37;;;;;;;5.07;3.78;;;;;;;26.69;41.23;100639.03;5114183;28;20503;-69
2023/09/09 00:35:06;;;;;;;6.20;3.80;;;;;;;26.69;41.63;100644.50;5114182;28;20058;-68
2023/09/09 00:37:34;;;;;;;6.20;3.75;;;;;;;26.68;41.42;100648.28;5114144;28;20083;-69
2023/09/09 00:40:05;;;;;;;5.78;3.72;;;;;;;26.66;41.32;100633.94;5114272;28;20047;-69
2023/09/09 00:42:33;;;;;;;5.78;3.40;;;;;;;26.65;41.78;100637.72;5114325;28;20048;-69
2023/09/09 00:45:05;;;;;;;5.22;3.60;;;;;;;26.63;41.53;100634.31;5114002;28;20404;-68
2023/09/09 00:47:34;;;;;;;5.38;3.75;;;;;;;26.62;41.49;100638.09;5113940;28;20051;-69
2023/09/09 00:50:05;;;;;;;6.03;3.92;;;;;;;26.59;41.58;100635.72;5113786;28;20044;-69
2023/09/09 00:52:36;;;;;;;5.78;3.72;;;;;;;26.59;41.41;100641.19;5114009;28;20100;-69
2023/09/09 00:55:07;;;;;;;5.88;3.58;;;;;;;26.57;41.37;100640.53;5096398;28;20420;-69
2023/09/09 00:57:38;;;;;;;5.40;3.90;;;;;;;26.56;41.73;100638.00;5114076;28;20043;-69
2023/09/09 01:00:09;;;;;;;5.95;3.78;;;;;;;26.56;41.96;100640.75;5095753;28;20143;-69
2023/09/09 01:02:38;;;;;;;6.30;3.63;;;;;;;26.54;41.69;100635.47;5113588;28;20404;-69
2023/09/09 01:05:12;;;;;;;5.38;3.78;;;;;;;26.52;41.88;100637.50;5113573;28;20280;-69
2023/09/09 01:07:48;;;;;;;5.10;3.53;;;;;;;26.51;42.01;100639.41;5113760;28;20055;-69
2023/09/09 01:10:20;;;;;;;5.38;3.78;;;;;;;26.50;41.58;100634.97;5113337;28;20044;-69
2023/09/09 01:12:49;;;;;;;5.07;3.55;;;;;;;26.48;41.63;100637.03;5113347;28;20056;-69
2023/09/09 01:15:18;;;;;;;5.28;3.42;;;;;;;26.46;41.98;100628.19;5113306;28;20044;-69
2023/09/09 01:17:53;;;;;;;5.45;3.35;;;;;;;26.44;41.86;100630.25;5113552;28;20309;-69
2023/09/09 01:20:25;;;;;;;6.45;3.90;;;;;;;26.44;41.85;100626.63;5113476;28;20043;-69
2023/09/09 01:22:55;;;;;;;6.10;4.00;;;;;;;26.44;41.85;100629.38;5113336;28;20055;-69
2023/09/09 01:25:26;;;;;;;6.72;4.63;;;;;;;26.39;42.13;100621.75;5113318;28;20048;-69
2023/09/09 01:27:54;;;;;;;5.25;3.80;;;;;;;26.42;41.60;100625.97;5112600;28;20074;-69
2023/09/09 01:30:25;;;;;;;5.75;3.70;;;;;;;26.40;41.93;100628.91;5113328;28;20040;-69
2023/09/09 01:32:54;;;;;;;5.13;3.85;;;;;;;26.39;41.85;100627.22;5113059;28;20408;-69
2023/09/09 01:35:22;;;;;;;5.30;3.90;;;;;;;26.38;41.67;100630.13;5113220;28;20052;-69
2023/09/09 01:37:50;;;;;;;5.07;3.80;;;;;;;26.36;42.13;100626.72;5113092;28;20048;-69
2023/09/09 01:40:20;;;;;;;5.28;3.38;;;;;;;26.34;41.74;100632.34;5112885;28;20112;-69
2023/09/09 01:42:49;;;;;;;5.43;3.75;;;;;;;26.34;42.24;100628.75;5113168;28;20048;-69
2023/09/09 01:45:18;;;;;;;6.18;3.90;;;;;;;26.33;42.00;100629.81;5113028;28;20048;-68
2023/09/09 01:47:46;;;;;;;5.38;3.75;;;;;;;26.31;41.90;100629.16;5112735;28;20043;-69
2023/09/09 01:50:16;;;;;;;6.05;3.40;;;;;;;26.30;42.03;100628.28;5112809;28;20416;-70
2023/09/09 01:52:44;;;;;;;5.47;3.40;;;;;;;26.29;41.98;100625.75;5112552;28;20410;-69
2023/09/09 01:55:12;;;;;;;6.68;3.72;;;;;;;26.27;42.35;100627.81;5112931;28;20055;-68
2023/09/09 01:57:46;;;;;;;5.18;3.75;;;;;;;26.27;42.18;100622.34;5112550;28;20044;-68
2023/09/09 02:00:15;;;;;;;6.25;3.60;;;;;;;26.25;42.25;100622.56;5112688;28;20055;-69
2023/09/09 02:02:46;;;;;;;6.13;3.78;;;;;;;26.23;42.30;100628.19;5112564;28;20043;-70
2023/09/09 02:05:15;;;;;;;6.32;3.60;;;;;;;26.21;41.86;100624.78;5112407;28;20488;-69
2023/09/09 02:07:45;;;;;;;5.82;3.53;;;;;;;26.20;42.50;100634.03;5112476;28;20724;-69
2023/09/09 02:10:14;;;;;;;5.30;3.63;;;;;;;26.19;42.02;100626.84;5112278;28;20477;-69
2023/09/09 02:12:43;;;;;;;5.78;3.45;;;;;;;26.18;42.17;100627.06;5112220;28;20484;-69
2023/09/09 02:15:13;;;;;;;5.82;3.60;;;;;;;26.18;42.32;100630.63;5112296;28;20048;-69
2023/09/09 02:17:41;;;;;;;5.60;3.58;;;;;;;26.16;42.39;100632.72;5112296;28;20046;-69
2023/09/09 02:20:10;;;;;;;4.72;3.50;;;;;;;26.15;42.00;100625.53;5094250;28;20043;-69
2023/09/09 02:22:39;;;;;;;4.97;3.58;;;;;;;26.13;42.08;100622.13;5093825;28;20051;-69
2023/09/09 02:25:08;;;;;;;5.32;3.63;;;;;;;26.13;42.02;100627.59;5112035;28;20546;-69
2023/09/09 02:27:37;;;;;;;6.45;3.97;;;;;;;26.12;42.38;100619.56;5112183;28;20040;-69
2023/09/09 02:30:08;;;;;;;6.57;4.00;;;;;;;26.10;42.55;100624.38;5112148;28;20552;-69
2023/09/09 02:32:36;;;;;;;5.07;3.50;;;;;;;26.08;42.34;100618.25;5111836;28;20096;-69
2023/09/09 02:35:08;;;;;;;5.13;3.58;;;;;;;26.08;42.33;100618.25;5112267;28;20043;-68
2023/09/09 02:37:36;;;;;;;5.63;3.70;;;;;;;26.07;42.59;100622.88;5112175;28;20092;-69
2023/09/09 02:40:05;;;;;;;5.25;3.63;;;;;;;26.04;42.53;100617.75;5111226;28;20082;-69
2023/09/09 02:42:36;;;;;;;5.82;3.60;;;;;;;26.05;42.28;100619.44;5112006;28;20047;-69
2023/09/09 02:45:09;;;;;;;4.85;3.50;;;;;;;26.00;42.52;100621.91;5111824;28;20051;-68
2023/09/09 02:47:39;;;;;;;5.35;3.58;;;;;;;26.00;42.63;100621.91;5093646;28;20405;-68
2023/09/09 02:50:09;;;;;;;5.50;3.55;;;;;;;26.01;42.25;100623.59;5111999;28;20123;-69
2023/09/09 02:52:37;;;;;;;5.65;3.55;;;;;;;26.00;42.14;100623.78;5111826;28;20089;-68
2023/09/09 02:55:11;;;;;;;6.63;3.90;;;;;;;25.97;42.21;100619.53;5111869;28;20039;-68
2023/09/09 02:57:40;;;;;;;5.90;3.72;;;;;;;25.97;42.10;100622.28;5111771;28;20071;-70
2023/09/09 03:00:16;;;;;;;5.85;3.70;;;;;;;25.93;42.30;100615.47;5112006;28;20067;-69
2023/09/09 03:02:44;;;;;;;5.47;3.88;;;;;;;25.94;42.61;100617.16;5111942;28;20159;-69
2023/09/09 03:05:13;;;;;;;5.68;3.83;;;;;;;25.93;42.46;100618.19;5111938;28;20047;-69
2023/09/09 03:07:45;;;;;;;4.97;3.60;;;;;;;25.91;42.70;100615.66;5111805;28;20131;-69
2023/09/09 03:10:13;;;;;;;5.30;3.53;;;;;;;25.90;42.54;100616.69;5111998;28;20088;-69
2023/09/09 03:12:42;;;;;;;5.07;3.55;;;;;;;25.90;42.77;100613.09;5111411;28;20465;-69
2023/09/09 03:15:11;;;;;;;4.55;3.42;;;;;;;25.88;42.22;100606.97;5111773;28;20122;-68
2023/09/09 03:17:40;;;;;;;6.22;3.78;;;;;;;25.87;42.48;100608.00;5111751;28;20051;-68
2023/09/09 03:20:10;;;;;;;6.22;3.40;;;;;;;25.86;42.35;100604.41;5111616;28;20067;-68
2023/09/09 03:22:40;;;;;;;5.25;3.65;;;;;;;25.85;42.61;100605.44;5111373;28;20079;-68
2023/09/09 03:25:12;;;;;;;5.70;3.22;;;;;;;25.85;42.53;100601.84;5111738;28;20044;-68
2023/09/09 03:27:43;;;;;;;4.53;3.20;;;;;;;25.83;42.44;100609.41;5111583;28;20039;-69
2023/09/09 03:30:13;;;;;;;6.03;3.40;;;;;;;25.82;42.58;100602.22;5111632;28;20075;-68
2023/09/09 03:32:42;;;;;;;5.68;3.88;;;;;;;25.82;42.45;100596.78;5111363;28;20040;-68
2023/09/09 03:35:10;;;;;;;5.95;3.78;;;;;;;25.79;42.57;100594.41;5111850;28;20542;-69
2023/09/09 03:37:39;;;;;;;5.78;3.70;;;;;;;25.79;42.29;100603.47;5111315;28;20518;-68
2023/09/09 03:40:08;;;;;;;5.60;3.40;;;;;;;25.78;42.50;100606.38;5111332;28;20056;-68
2023/09/09 03:42:39;;;;;;;5.47;3.70;;;;;;;25.78;42.58;100600.91;5111427;28;20440;-68
2023/09/09 03:45:09;;;;;;;5.40;3.65;;;;;;;25.76;42.72;100600.22;5111343;28;20454;-68
2023/09/09 03:47:41;;;;;;;5.53;3.72;;;;;;;25.75;42.75;100602.09;5111321;28;20044;-68
2023/09/09 03:50:10;;;;;;;5.13;3.35;;;;;;;25.71;42.62;100594.47;5112193;28;20442;-68
2023/09/09 03:52:39;;;;;;;5.43;3.75;;;;;;;25.73;42.59;100606.06;5115193;28;20096;-68
2023/09/09 03:55:09;;;;;;;5.45;3.67;;;;;;;25.71;42.51;100608.97;5114985;28;20090;-69
2023/09/09 03:57:37;;;;;;;6.72;3.90;;;;;;;25.68;42.62;100599.25;5114904;28;20040;-68
2023/09/09 04:00:09;;;;;;;6.13;4.05;;;;;;;25.67;42.60;100604.84;5114952;28;20087;-69
2023/09/09 04:02:38;;;;;;;4.90;3.63;;;;;;;25.68;42.79;100610.16;5114738;28;20389;-68
2023/09/09 04:05:09;;;;;;;5.57;3.70;;;;;;;25.64;42.71;100597.03;5114946;28;20139;-68
2023/09/09 04:07:39;;;;;;;5.30;3.58;;;;;;;25.65;42.51;100604.19;5114587;28;20046;-69
2023/09/09 04:10:08;;;;;;;5.15;3.60;;;;;;;25.64;42.74;100608.81;5114651;28;20075;-69
2023/09/09 04:12:36;;;;;;;5.20;3.70;;;;;;;25.63;42.48;100609.84;5114631;28;20044;-69
2023/09/09 04:15:06;;;;;;;6.65;3.80;;;;;;;25.62;42.63;100610.88;5114608;28;20047;-69
2023/09/09 04:17:34;;;;;;;4.72;3.55;;;;;;;25.60;43.06;100610.22;5114458;28;20103;-70
2023/09/09 04:20:03;;;;;;;5.35;3.58;;;;;;;25.60;42.89;100612.94;5114472;28;20048;-69
2023/09/09 04:22:36;;;;;;;6.40;3.88;;;;;;;25.58;42.56;100612.28;5114646;28;20039;-69
2023/09/09 04:25:04;;;;;;;5.28;3.22;;;;;;;25.59;42.81;100613.13;5113948;28;20146;-69
2023/09/09 04:27:33;;;;;;;6.07;4.28;;;;;;;25.58;42.97;100617.75;5114373;28;20071;-69
2023/09/09 04:30:01;;;;;;;5.68;3.80;;;;;;;25.56;42.71;100608.84;5114610;28;20514;-69
2023/09/09 04:32:31;;;;;;;5.32;3.85;;;;;;;25.56;42.98;100608.84;5114447;28;20050;-69
2023/09/09 04:35:03;;;;;;;5.57;3.58;;;;;;;25.56;42.98;100614.31;5114115;28;20047;-69
2023/09/09 04:37:32;;;;;;;4.85;3.60;;;;;;;25.54;42.63;100610.94;5114183;28;20124;-69
2023/09/09 04:40:05;;;;;;;6.80;4.00;;;;;;;25.52;43.06;100615.72;5113957;28;20047;-69
2023/09/09 04:42:33;;;;;;;5.93;3.40;;;;;;;25.52;42.90;100613.00;5114365;28;20441;-69
2023/09/09 04:45:02;;;;;;;5.53;3.78;;;;;;;25.52;43.10;100617.63;5114152;28;20117;-69
2023/09/09 04:47:31;;;;;;;4.82;3.60;;;;;;;25.52;43.11;100612.16;5095971;28;20050;-69
2023/09/09 04:49:59;;;;;;;5.53;3.40;;;;;;;25.50;42.93;100623.25;5114006;28;20054;-69
2023/09/09 04:52:27;;;;;;;5.57;3.63;;;;;;;25.50;42.72;100626.00;5113824;28;20044;-68
2023/09/09 04:54:59;;;;;;;6.75;3.90;;;;;;;25.48;43.19;100622.59;5113660;28;20044;-68
2023/09/09 04:57:28;;;;;;;5.57;3.80;;;;;;;25.48;43.21;100617.13;5113784;28;20052;-68
2023/09/09 04:59:57;;;;;;;5.47;3.75;;;;;;;25.48;42.92;100621.72;5113807;28;20054;-68
2023/09/09 05:02:25;;;;;;;5.63;3.58;;;;;;;25.47;43.23;100625.47;5112814;28;20049;-67
2023/09/09 05:04:56;;;;;;;6.50;3.80;;;;;;;25.45;43.21;100628.41;5113672;28;20051;-68
2023/09/09 05:07:24;;;;;;;5.10;3.90;;;;;;;25.45;42.91;100631.13;5095144;28;20050;-68
2023/09/09 05:09:53;;;;;;;5.28;3.65;;;;;;;25.44;43.16;100634.03;5113683;28;20141;-68
2023/09/09 05:12:21;;;;;;;5.55;3.60;;;;;;;25.45;42.85;100638.47;5113304;28;20083;-68
2023/09/09 05:14:51;;;;;;;5.55;3.92;;;;;;;25.43;43.44;100643.25;5113350;28;20143;-69
2023/09/09 05:17:19;;;;;;;5.35;3.85;;;;;;;25.43;43.43;100635.06;5113422;28;20135;-68
2023/09/09 05:19:50;;;;;;;5.30;3.60;;;;;;;25.43;42.99;100646.00;5113114;28;20082;-69
2023/09/09 05:22:20;;;;;;;5.57;3.55;;;;;;;25.41;43.31;100648.91;5112711;28;20080;-68
2023/09/09 05:24:48;;;;;;;5.93;3.78;;;;;;;25.41;43.23;100648.91;5113318;28;20390;-69
2023/09/09 05:27:19;;;;;;;6.20;3.80;;;;;;;25.40;43.28;100644.47;5113165;28;20112;-69
2023/09/09 05:29:48;;;;;;;5.07;3.40;;;;;;;25.39;43.44;100640.06;5113202;28;20050;-69
2023/09/09 05:32:18;;;;;;;5.75;3.50;;;;;;;25.39;43.40;100650.97;5112908;28;20476;-69
2023/09/09 05:34:47;;;;;;;5.43;3.75;;;;;;;25.38;43.55;100638.31;5113212;28;20055;-69
2023/09/09 05:37:15;;;;;;;4.97;3.40;;;;;;;25.38;43.34;100646.50;5113217;28;20089;-69
2023/09/09 05:39:43;;;;;;;5.30;3.67;;;;;;;25.37;43.11;100647.56;5113032;28;20074;-69
2023/09/09 05:42:12;;;;;;;5.75;3.60;;;;;;;25.37;43.58;100642.09;5112732;28;20051;-69
2023/09/09 05:44:40;;;;;;;5.40;3.60;;;;;;;25.35;43.26;100636.81;5112669;28;20043;-69
2023/09/09 05:47:10;;;;;;;6.28;3.50;;;;;;;25.35;43.19;100638.69;5112625;28;20460;-69
2023/09/09 05:49:39;;;;;;;6.10;3.58;;;;;;;25.35;43.54;100634.09;5094512;28;20486;-69
2023/09/09 05:52:08;;;;;;;4.88;3.60;;;;;;;25.33;43.50;100635.28;5112660;28;20443;-69
2023/09/09 05:54:37;;;;;;;5.45;3.67;;;;;;;25.34;43.52;100637.00;5112734;28;20142;-69
2023/09/09 05:57:05;;;;;;;5.72;3.72;;;;;;;25.34;43.48;100637.84;5112681;28;20132;-69
2023/09/09 05:59:34;;;;;;;5.20;3.63;;;;;;;25.32;43.43;100645.38;5112498;28;20500;-69
2023/09/09 06:02:03;;;;;;;5.70;3.42;;;;;;;25.33;43.49;100646.22;5112777;28;20047;-69
2023/09/09 06:04:31;;;;;;;4.40;3.30;;;;;;;25.32;43.48;100650.84;5112586;28;20100;-68
2023/09/09 06:07:01;;;;;;;5.30;3.60;;;;;;;25.32;43.55;100644.53;5112340;28;20052;-68
2023/09/09 06:09:29;;;;;;;4.80;3.40;;;;;;;25.31;43.52;100653.75;5094196;28;20135;-69
2023/09/09 06:11:57;;;;;;;5.90;3.65;;;;;;;25.32;43.50;100647.25;5112081;28;20135;-68
2023/09/09 06:14:26;;;;;;;5.40;3.60;;;;;;;25.32;43.50;100649.97;5094482;28;20052;-69
2023/09/09 06:16:54;;;;;;;5.07;3.40;;;;;;;25.31;43.80;100642.81;5094319;28;20046;-68
2023/09/09 06:19:23;;;;;;;5.07;3.53;;;;;;;25.30;43.39;100641.97;5112411;28;20052;-69
2023/09/09 06:21:51;;;;;;;5.05;3.70;;;;;;;25.31;43.35;100648.28;5112214;28;20066;-68
2023/09/09 06:24:21;;;;;;;5.55;3.65;;;;;;;25.29;43.65;100644.88;5094131;28;20051;-68
2023/09/09 06:26:49;;;;;;;5.70;3.50;;;;;;;25.30;43.40;100644.69;5094001;28;20146;-69
2023/09/09 06:29:18;;;;;;;4.95;3.70;;;;;;;25.29;43.36;100644.88;5094029;28;20454;-69
2023/09/09 06:31:48;;;;;;;5.10;3.42;;;;;;;25.30;43.85;100654.78;5111933;28;20477;-68
2023/09/09 06:34:16;;;;;;;4.93;3.60;;;;;;;25.29;43.66;100655.81;5112304;28;20047;-69
2023/09/09 06:36:45;;;;;;;4.60;3.20;;;;;;;25.29;43.79;100661.28;5111804;28;20051;-68
2023/09/09 06:39:17;;;;;;;6.18;3.75;;;;;;;25.30;43.77;100662.97;5093922;28;20404;-69
2023/09/09 06:41:47;;;;;;;4.60;3.50;;;;;;;25.29;43.99;100664.00;5112180;28;20052;-68
2023/09/09 06:44:16;;;;;;;4.93;3.63;;;;;;;25.29;43.72;100666.72;5111969;28;20213;-69
2023/09/09 06:46:44;;;;;;;4.65;3.45;;;;;;;25.30;43.78;100668.44;5111867;28;20051;-68
2023/09/09 06:49:13;;;;;;;5.43;3.70;;;;;;;25.29;43.87;100667.56;5111918;28;20044;-68
2023/09/09 06:51:42;;;;;;;5.22;3.60;;;;;;;25.29;44.11;100672.19;5111673;28;20040;-68
2023/09/09 06:54:11;;;;;;;5.25;3.45;;;;;;;25.30;43.77;100672.00;5111918;28;20104;-68
2023/09/09 06:56:39;;;;;;;5.97;3.58;;;;;;;25.30;43.97;100674.72;5093842;28;20074;-68
2023/09/09 06:59:09;;;;;;;5.47;3.40;;;;;;;25.31;44.00;100678.31;5111906;28;20054;-69
2023/09/09 07:01:37;;;;;;;4.93;3.20;;;;;;;25.31;44.03;100681.03;5111832;28;20126;-69
2023/09/09 07:04:06;;;;;;;5.85;3.58;;;;;;;25.29;44.08;100678.50;5111919;28;20737;-69
2023/09/09 07:06:37;;;;;;;5.07;3.38;;;;;;;25.31;44.04;100681.03;5111920;28;20083;-69
2023/09/09 07:09:13;;;;;;;4.95;3.30;;;;;;;25.30;44.32;100682.94;5111607;28;20083;-69
2023/09/09 07:11:41;;;;;;;5.07;3.20;;;;;;;25.31;44.26;100681.03;5111297;28;20052;-69
2023/09/09 07:14:11;;;;;;;4.88;3.70;;;;;;;25.31;44.19;100678.31;5111705;28;20094;-69
2023/09/09 07:16:39;;;;;;;4.97;3.50;;;;;;;25.30;44.33;100682.94;5111517;28;20050;-69
2023/09/09 07:19:10;;;;;;;5.05;3.30;;;;;;;25.30;44.38;100682.06;5111540;28;20130;-69
2023/09/09 07:21:39;;;;;;;4.90;3.60;;;;;;;25.31;44.10;100681.91;5111430;28;20451;-69
2023/09/09 07:24:07;;;;;;;5.13;3.15;;;;;;;25.31;44.40;100676.44;5093719;28;20054;-69
2023/09/09 07:26:40;;;;;;;5.55;3.55;;;;;;;25.32;44.10;100677.28;5115155;28;20400;-69
2023/09/09 07:29:11;;;;;;;5.57;3.70;;;;;;;25.30;44.51;100680.19;5115343;28;20046;-69
2023/09/09 07:31:43;;;;;;;5.50;3.50;;;;;;;25.30;44.46;100674.72;5115166;28;20504;-69
2023/09/09 07:34:11;;;;;;;4.50;3.05;;;;;;;25.32;44.52;100683.59;5115594;28;20055;-68
2023/09/09 07:36:40;;;;;;;4.97;3.10;;;;;;;25.33;44.19;100684.44;5115345;28;20051;-68
2023/09/09 07:39:08;;;;;;;4.68;3.30;;;;;;;25.32;44.30;100683.59;5115304;28;20048;-68
2023/09/09 07:41:37;;;;;;;5.78;3.13;;;;;;;25.31;44.24;100687.34;5115301;28;20052;-68
2023/09/09 07:44:05;;;;;;;5.35;3.35;;;;;;;25.33;44.61;100684.44;5097109;28;20393;-68
2023/09/09 07:46:33;;;;;;;5.03;3.63;;;;;;;25.32;44.44;100689.06;5115331;28;20039;-68
2023/09/09 07:49:03;;;;;;;5.57;3.70;;;;;;;25.34;44.48;100681.53;5115127;28;20477;-69
2023/09/09 07:51:31;;;;;;;4.60;3.13;;;;;;;25.34;44.42;100681.53;5115045;28;20044;-69
2023/09/09 07:54:00;;;;;;;5.68;3.55;;;;;;;25.33;44.24;100685.28;5115173;28;20404;-68
2023/09/09 07:56:28;;;;;;;4.88;3.22;;;;;;;25.34;44.20;100681.53;5114743;28;20054;-69
2023/09/09 07:58:56;;;;;;;4.30;2.95;;;;;;;25.36;44.26;100675.88;5114787;28;20044;-68
2023/09/09 08:01:25;;;;;;;4.70;3.03;;;;;;;25.36;44.15;100678.63;5114842;28;20086;-68
2023/09/09 08:03:53;;;;;;;5.35;3.63;;;;;;;25.36;44.24;100678.63;5115004;28;20074;-68
2023/09/09 08:06:23;;;;;;;4.65;3.20;;;;;;;25.36;44.51;100676.72;5114553;28;20058;-68
2023/09/09 08:08:52;;;;;;;4.40;3.10;;;;;;;25.37;44.59;100685.78;5114510;28;20472;-68
2023/09/09 08:11:21;;;;;;;4.70;3.20;;;;;;;25.36;44.55;100678.63;5114298;28;20454;-68
2023/09/09 08:13:50;;;;;;;4.72;3.10;;;;;;;25.38;44.59;100688.34;5114727;28;20044;-69
2023/09/09 08:16:18;;;;;;;5.28;3.17;;;;;;;25.39;44.48;100681.00;5114670;28;20048;-68
2023/09/09 08:18:46;;;;;;;5.05;3.50;;;;;;;25.39;44.41;100683.75;5114176;28;20070;-68
2023/09/09 08:21:15;;;;;;;5.03;3.17;;;;;;;25.41;44.59;100692.59;5114489;28;20047;-68
2023/09/09 08:23:45;;;;;;;4.95;3.30;;;;;;;25.41;44.27;100681.69;5114194;28;20047;-68
2023/09/09 08:26:21;;;;;;;5.05;3.17;;;;;;;25.42;44.70;100677.91;5114568;28;20066;-68
2023/09/09 08:28:49;;;;;;;4.65;3.08;;;;;;;25.41;44.44;100676.22;5114208;28;20476;-68
2023/09/09 08:31:20;;;;;;;4.47;3.30;;;;;;;25.43;44.64;100673.31;5114267;28;20131;-69
2023/09/09 08:33:49;;;;;;;4.82;3.28;;;;;;;25.43;44.70;100673.31;5114236;28;20058;-69
2023/09/09 08:36:20;;;;;;;4.35;2.97;;;;;;;25.44;44.64;100669.53;5113076;28;20128;-68
2023/09/09 08:38:56;;;;;;;5.03;3.45;;;;;;;25.45;44.86;100672.09;5096535;28;20131;-68
2023/09/09 08:41:41;;;;;;;4.90;3.22;;;;;;;25.47;44.90;100669.16;5114257;28;20079;-69
2023/09/09 08:44:19;;;;;;;5.18;3.28;;;;;;;25.47;44.43;100670.03;5114133;28;20130;-68
2023/09/09 08:46:48;;;;;;;4.55;3.05;;;;;;;25.47;44.84;100663.72;5113706;28;20047;-68
2023/09/09 08:49:22;;;;;;;4.65;3.00;;;;;;;25.47;44.36;100661.81;5113989;28;20051;-68
2023/09/09 08:51:55;;;;;;;4.90;3.60;;;;;;;25.49;44.90;100668.00;5113856;28;20047;-68
2023/09/09 08:54:26;;;;;;;4.35;3.20;;;;;;;25.51;44.49;100665.91;5113834;28;20512;-68
2023/09/09 08:56:57;;;;;;;4.65;3.10;;;;;;;25.51;44.80;100665.06;5113818;28;20047;-68
2023/09/09 08:59:26;;;;;;;5.55;3.30;;;;;;;25.53;44.70;100669.31;5113899;28;20059;-69
2023/09/09 09:01:56;;;;;;;5.03;3.33;;;;;;;25.53;44.71;100668.47;5114050;28;20039;-68
2023/09/09 09:04:26;;;;;;;5.93;3.58;;;;;;;25.54;44.65;100660.09;5113812;28;20518;-68
2023/09/09 09:06:56;;;;;;;4.28;3.13;;;;;;;25.56;45.03;100663.50;5113747;28;20132;-70
2023/09/09 09:09:26;;;;;;;4.88;3.45;;;;;;;25.58;44.37;100666.06;5113715;28;20174;-69
2023/09/09 09:11:55;;;;;;;4.70;3.15;;;;;;;25.59;44.47;100668.59;5113500;28;20087;-69
2023/09/09 09:14:24;;;;;;;4.05;3.08;;;;;;;25.59;44.47;100668.59;5113546;28;20401;-68
2023/09/09 09:16:54;;;;;;;4.28;3.20;;;;;;;25.60;44.76;100658.53;5113447;28;20058;-68
2023/09/09 09:19:27;;;;;;;4.97;2.92;;;;;;;25.62;44.52;100662.78;5113355;28;20080;-68
2023/09/09 09:21:56;;;;;;;4.13;2.80;;;;;;;25.63;44.47;100655.44;5113380;28;20214;-68
2023/09/09 09:24:28;;;;;;;5.45;3.25;;;;;;;25.63;44.91;100656.28;5113329;28;20044;-67
2023/09/09 09:26:59;;;;;;;4.30;2.93;;;;;;;25.66;44.69;100655.91;5113160;28;20067;-68
2023/09/09 09:29:38;;;;;;;4.93;3.10;;;;;;;25.66;44.59;100646.88;5113312;28;20280;-68
2023/09/09 09:32:08;;;;;;;4.93;3.28;;;;;;;25.69;44.82;100652.00;5113172;28;20134;-69
2023/09/09 09:34:36;;;;;;;4.45;3.03;;;;;;;25.69;44.88;100647.38;5113182;28;20052;-68
2023/09/09 09:37:10;;;;;;;5.38;3.30;;;;;;;25.69;45.02;100646.53;5112895;28;20047;-69
2023/09/09 09:39:41;;;;;;;5.60;3.38;;;;;;;25.74;44.93;100640.53;5113168;28;20047;-68
2023/09/09 09:42:12;;;;;;;4.93;3.38;;;;;;;25.75;44.76;100644.97;5113095;28;20134;-69
2023/09/09 09:44:43;;;;;;;4.85;3.17;;;;;;;25.77;45.08;100651.97;5113041;28;20134;-68
2023/09/09 09:47:15;;;;;;;4.72;3.25;;;;;;;25.76;44.59;100638.47;5112712;28;20305;-69
2023/09/09 09:49:58;;;;;;;4.40;2.92;;;;;;;25.79;44.98;100646.31;5112765;28;20047;-68
2023/09/09 09:52:29;;;;;;;4.88;3.30;;;;;;;25.83;45.03;100639.44;5094500;28;20051;-69
2023/09/09 09:54:59;;;;;;;4.53;3.13;;;;;;;25.84;44.69;100647.47;5112603;28;20096;-68
2023/09/09 09:57:30;;;;;;;4.35;3.13;;;;;;;25.84;44.82;100644.72;5112462;28;20557;-68
2023/09/09 10:00:00;;;;;;;4.50;3.05;;;;;;;25.89;45.04;100649.66;5112463;28;20070;-69
2023/09/09 10:02:30;;;;;;;4.43;3.08;;;;;;;25.90;45.00;100637.69;5112552;28;20069;-68
2023/09/09 10:05:00;;;;;;;4.40;2.95;;;;;;;25.93;45.00;100640.06;5112791;28;20047;-68
2023/09/09 10:07:32;;;;;;;4.70;2.75;;;;;;;25.95;44.90;100640.72;5112787;28;20052;-69
2023/09/09 10:10:10;;;;;;;4.70;3.13;;;;;;;25.96;44.67;100635.09;5112338;28;20039;-69
2023/09/09 10:12:49;;;;;;;4.05;2.83;;;;;;;26.01;44.98;100641.88;5112778;28;20065;-68
2023/09/09 10:15:20;;;;;;;5.00;3.20;;;;;;;26.03;44.99;100637.91;5112464;28;20139;-68
2023/09/09 10:17:51;;;;;;;4.40;3.10;;;;;;;26.06;45.00;100636.72;5112105;28;20089;-68
2023/09/09 10:20:24;;;;;;;4.90;3.15;;;;;;;26.09;44.88;100642.66;5111680;28;20126;-69
2023/09/09 10:22:59;;;;;;;5.20;3.30;;;;;;;26.10;45.06;100638.91;5111901;28;20083;-68
2023/09/09 10:25:30;;;;;;;4.40;3.13;;;;;;;26.16;44.85;100642.78;5112490;28;20071;-68
2023/09/09 10:28:01;;;;;;;4.40;2.90;;;;;;;26.18;44.88;100636.09;5112129;28;20040;-69
2023/09/09 10:30:36;;;;;;;4.38;3.17;;;;;;;26.22;44.89;100636.56;5112074;28;20516;-69
2023/09/09 10:33:06;;;;;;;4.88;3.10;;;;;;;26.25;44.94;100631.59;5112016;28;20199;-68
2023/09/09 10:35:36;;;;;;;4.47;2.90;;;;;;;26.29;44.63;100625.75;5111944;28;20052;-68
2023/09/09 10:38:06;;;;;;;3.97;2.72;;;;;;;26.34;44.65;100629.59;5112143;28;20070;-69
2023/09/09 10:40:36;;;;;;;4.43;2.90;;;;;;;26.38;44.88;100619.19;5112194;28;20074;-69
2023/09/09 10:43:05;;;;;;;3.92;2.78;;;;;;;26.41;44.65;100627.03;5112373;28;20051;-69
2023/09/09 10:45:42;;;;;;;4.70;3.05;;;;;;;26.45;44.74;100620.16;5111839;28;20052;-68
2023/09/09 10:48:11;;;;;;;4.68;3.20;;;;;;;26.49;45.05;100618.75;5112080;28;20048;-69
2023/09/09 10:50:41;;;;;;;4.32;3.00;;;;;;;26.50;45.19;100609.50;5112008;28;20062;-68
2023/09/09 10:53:22;;;;;;;4.43;2.83;;;;;;;26.56;45.16;100605.19;5111782;28;20067;-69
2023/09/09 10:55:56;;;;;;;4.53;3.08;;;;;;;26.61;45.01;100605.44;5111875;28;20054;-68
2023/09/09 10:58:35;;;;;;;5.35;3.42;;;;;;;26.67;44.67;100604.72;5111574;28;20134;-69
2023/09/09 11:01:03;;;;;;;4.50;2.90;;;;;;;26.70;44.56;100618.00;5114409;28;20051;-68
2023/09/09 11:03:37;;;;;;;4.53;3.17;;;;;;;26.72;44.61;100611.28;5116106;28;20044;-69
2023/09/09 11:06:07;;;;;;;4.30;2.83;;;;;;;26.78;44.95;100610.53;5115847;28;20489;-69
2023/09/09 11:08:43;;;;;;;4.15;2.72;;;;;;;26.83;45.05;100612.75;5115903;28;20043;-69
2023/09/09 11:11:15;;;;;;;4.38;2.83;;;;;;;26.89;45.03;100611.09;5115663;28;20143;-69
2023/09/09 11:13:49;;;;;;;4.20;2.90;;;;;;;26.92;44.96;100602.50;5116041;28;20075;-69
2023/09/09 11:16:37;;;;;;;4.15;2.90;;;;;;;26.97;44.69;100597.31;5081542;28;20051;-68
2023/09/09 11:19:08;;;;;;;4.07;2.97;;;;;;;27.02;44.96;100595.75;5115752;28;20043;-69
2023/09/09 11:21:40;;;;;;;4.60;2.97;;;;;;;27.06;44.72;100596.22;5115588;28;20051;-69
2023/09/09 11:24:09;;;;;;;4.70;3.17;;;;;;;27.12;44.61;100589.09;5115645;28;20624;-68
2023/09/09 11:26:44;;;;;;;4.45;3.00;;;;;;;27.16;44.74;100591.28;5115728;28;20046;-69
2023/09/09 11:29:16;;;;;;;4.55;2.85;;;;;;;27.21;44.29;100591.53;5115465;28;20544;-69
2023/09/09 11:32:03;;;;;;;4.68;3.20;;;;;;;27.25;44.38;100590.13;5115333;28;20073;-69
2023/09/09 11:34:33;;;;;;;4.95;3.08;;;;;;;27.30;44.77;100587.66;5115611;28;20232;-69
2023/09/09 11:37:03;;;;;;;4.28;2.78;;;;;;;27.36;44.57;100581.41;5115214;28;20130;-69